Terminal Aerodrome Forecast
Issued by NWS

Home | Current Version | Previous Version | Graphics & Text | Print | Product List | Glossary On
Versions: 1 2 3 4 5 6 7 8 9 10 11 12 13 14 15 16 17
000
FTUS43 KGRB 270533
TAFMTW
TAF
KMTW 270533Z 2706/2806 VRB03KT 6SM BR SKC
      TEMPO 2706/2709 2SM BR SCT003
     FM270900 VRB03KT 4SM BR SKC
      TEMPO 2709/2713 3/4SM BR BKN003
     FM271400 17003KT 6SM BR SKC
     FM271600 16005KT P6SM SCT250
     FM280000 19003KT P6SM BKN250=

USA.gov is the U.S. government's official web portal to all federal, state and local government web resources and services.